Date,TemperatureHighF,TemperatureAvgF,TemperatureLowF,DewpointHighF,DewpointAvgF,DewpointLowF,HumidityHigh,HumidityAvg,HumidityLow,PressureMaxIn,PressureMinIn,WindSpeedMaxMPH,WindSpeedAvgMPH,GustSpeedMaxMPH,PrecipitationSumIn
2013-1-1,21,11,6,11,5,2,91,77,63,0.00,40.00,26,12,37,0.01
2013-1-2,20,11,3,2,-4,-100,81,54,30,0.00,40.00,17,10,25,0.00
2013-1-3,40,25,11,3,-7,-19,39,24,11,0.00,40.00,13,10,17,0.00
2013-1-4,34,26,18,3,-4,-12,51,27,15,0.00,40.00,29,15,36,0.00
2013-1-5,28,20,14,8,1,-100,68,47,19,0.00,40.00,23,14,37,0.00
2013-1-6,35,26,22,20,3,-100,76,42,19,0.00,40.00,25,12,39,0.00
2013-1-7,26,21,18,15,9,-100,69,63,57,0.00,40.00,27,18,41,0.00
2013-1-8,25,23,21,18,13,-100,79,67,55,0.00,40.00,40,30,67,0.00
2013-1-9,40,31,23,19,11,-100,84,48,24,0.00,40.00,31,16,49,0.00
2013-1-10,35,26,6,20,12,-100,100,64,28,0.00,40.00,21,9,25,0.00
2013-1-11,6,-5,-9,4,-9,-100,92,84,81,0.00,40.00,7,3,8,0.00
2013-1-12,4,-4,-9,1,-9,-100,88,83,81,0.00,40.00,4,1,5,0.00
2013-1-13,7,-5,-8,6,-9,-100,93,83,82,0.00,40.00,6,1,7,0.00
2013-1-14,1,-4,-10,-4,-10,-100,83,79,74,0.00,40.00,34,14,49,0.00
2013-1-15,13,6,-2,7,2,-100,89,83,75,0.00,40.00,27,18,39,0.00
2013-1-16,29,19,8,9,6,4,86,60,35,0.00,40.00,38,24,52,0.00
2013-1-17,34,25,19,9,6,-100,62,46,29,0.00,40.00,35,23,47,0.00
2013-1-18,32,28,24,7,5,3,46,38,29,0.00,40.00,46,31,73,0.00
2013-1-19,31,24,18,7,3,-100,51,41,28,0.00,40.00,41,26,54,0.00
2013-1-20,28,23,16,11,6,-100,61,50,38,0.00,40.00,43,22,54,0.00
2013-1-21,34,27,22,11,5,-100,60,41,30,0.00,40.00,49,31,63,0.00
2013-1-22,37,26,21,5,-3,-100,46,32,13,0.00,40.00,37,22,50,0.00
2013-1-23,39,31,28,4,-4,-100,30,23,17,0.00,40.00,21,13,34,0.00
2013-1-24,35,28,25,23,7,-100,73,52,26,0.00,40.00,50,28,67,0.00
2013-1-25,34,27,25,23,13,-100,83,67,61,0.00,40.00,32,24,47,0.00
2013-1-26,40,31,27,26,18,-100,85,66,49,0.00,40.00,29,11,44,0.00
2013-1-27,31,21,12,26,16,-100,100,89,71,0.00,40.00,16,8,21,0.00
2013-1-28,14,10,5,11,4,-100,95,86,77,0.00,40.00,15,7,21,0.03
2013-1-29,12,6,3,7,0,-100,90,83,74,0.00,40.00,24,9,31,0.01
2013-1-30,23,17,7,17,9,-100,87,77,71,0.00,40.00,40,29,62,0.00
2013-1-31,26,23,22,17,11,-100,80,68,62,0.00,40.00,41,31,62,0.00
2013-2-1,29,23,20,22,14,-100,99,74,50,0.00,40.00,44,28,63,0.00
2013-2-2,28,22,19,17,12,-100,80,67,59,0.00,40.00,40,29,56,0.00
2013-2-3,31,23,16,14,9,-100,82,59,38,0.00,40.00,35,19,49,0.00
2013-2-4,29,24,21,18,12,-100,72,64,58,0.00,40.00,48,30,68,0.00
2013-2-5,34,27,24,20,14,-100,81,64,52,0.00,40.00,29,20,46,0.00
2013-2-6,28,21,16,15,4,-100,87,58,45,0.00,40.00,35,22,52,0.00
2013-2-7,32,19,12,9,0,-100,83,51,27,0.00,40.00,26,12,35,0.00
2013-2-8,25,21,15,13,3,-100,87,53,30,0.00,40.00,17,12,23,0.00
2013-2-9,18,15,14,17,12,-100,98,92,75,0.00,40.00,12,9,17,0.04
2013-2-10,18,10,3,18,7,-100,97,91,79,0.00,40.00,9,4,12,0.00
2013-2-11,18,8,-1,4,-3,-100,81,65,37,0.00,40.00,24,16,35,0.00
2013-2-12,22,15,6,12,5,-100,88,71,57,0.00,40.00,39,26,55,0.00
2013-2-13,27,22,18,16,13,-100,82,71,57,0.00,40.00,45,27,70,0.00
2013-2-14,20,13,8,18,10,-100,98,94,81,0.00,40.00,26,6,45,0.34
2013-2-15,27,20,14,15,12,-100,97,76,50,0.00,40.00,34,20,49,0.00
2013-2-16,30,24,20,17,16,13,81,69,56,0.00,40.00,38,26,61,0.00
2013-2-17,28,21,13,23,11,-100,100,67,44,0.00,40.00,44,18,66,0.13
2013-2-18,22,15,10,7,4,-1,82,61,43,0.00,40.00,27,16,36,0.00
2013-2-19,35,22,12,13,-1,-100,70,43,15,0.00,40.00,20,7,24,0.00
2013-2-20,24,18,12,16,11,-100,100,76,58,0.00,40.00,16,9,18,0.00
2013-2-21,18,12,10,17,5,-100,98,87,72,0.00,40.00,31,7,42,0.00
2013-2-22,21,14,9,11,1,-100,85,63,49,0.00,40.00,37,25,54,0.00
2013-2-23,24,16,11,17,7,-100,98,81,66,0.00,40.00,34,13,44,0.17
2013-2-24,22,15,7,12,6,-100,95,73,37,0.00,40.00,38,13,54,0.00
2013-2-25,24,14,9,11,3,-100,80,65,56,0.00,40.00,28,22,44,0.00
2013-2-26,24,15,10,8,2,-100,79,59,33,0.00,40.00,22,13,32,0.00
2013-2-27,22,14,9,8,-1,-100,79,60,51,0.00,40.00,35,25,49,0.00
2013-2-28,26,17,11,13,4,-100,76,63,53,0.00,40.00,35,22,50,0.00
2013-3-1,34,25,19,23,12,-100,82,69,63,0.00,40.00,37,26,54,0.00
2013-3-2,40,32,26,24,18,-100,80,61,50,0.00,40.00,30,19,46,0.00
2013-3-3,36,26,12,28,14,-100,100,71,49,0.00,40.00,39,24,55,0.44
2013-3-4,19,9,2,7,-2,-100,96,67,44,0.00,40.00,39,14,49,0.00
2013-3-5,31,18,6,10,0,-100,76,51,26,0.00,40.00,22,13,34,0.00
2013-3-6,40,28,23,27,13,-100,100,58,32,0.00,40.00,31,9,49,0.00
2013-3-7,34,24,18,19,6,-100,82,49,29,0.00,40.00,45,16,60,0.00
2013-3-8,35,24,21,25,16,-100,100,77,47,0.00,40.00,12,5,15,0.00
2013-3-9,25,20,16,23,12,-100,100,76,51,0.00,40.00,17,10,24,0.00
2013-3-10,38,26,17,15,3,-100,66,41,24,0.00,40.00,37,19,55,0.00
2013-3-11,32,22,11,22,8,-100,100,68,34,0.00,40.00,35,16,52,0.01
2013-3-12,35,21,9,24,9,-100,96,73,52,0.00,40.00,35,15,52,0.00
2013-3-13,43,35,31,25,18,-100,76,56,39,0.00,40.00,41,28,60,0.00
2013-3-14,51,40,34,26,18,-100,71,45,26,0.00,40.00,34,20,50,0.00
2013-3-15,46,39,27,23,11,-100,84,36,22,0.00,40.00,60,32,83,0.00
2013-3-16,40,30,25,25,15,-100,100,61,20,0.00,40.00,33,13,52,0.00
2013-3-17,31,20,11,24,11,-100,100,71,42,0.00,40.00,40,26,57,0.03
2013-3-18,19,14,9,10,2,-100,94,60,48,0.00,40.00,34,21,48,0.00
2013-3-19,30,19,12,10,-1,-100,87,48,20,0.00,40.00,30,14,45,0.00
2013-3-20,38,28,19,24,7,-100,73,47,22,0.00,40.00,26,15,40,0.00
2013-3-21,33,22,14,28,12,-100,100,72,36,0.00,40.00,30,13,43,0.05
2013-3-22,18,10,6,9,-11,-100,91,57,34,0.00,40.00,20,11,29,0.00
2013-3-23,6,4,2,4,0,-100,89,87,87,0.00,40.00,6,2,7,0.04
2013-3-25,30,18,5,8,-1,-100,81,48,25,0.00,40.00,20,10,26,0.00
2013-3-26,35,23,15,17,8,-100,73,54,41,0.00,40.00,16,9,23,0.00
2013-3-27,40,28,20,22,12,-100,81,60,42,0.00,40.00,17,10,30,0.00
2013-3-28,45,34,26,22,17,-100,80,53,29,0.00,40.00,19,11,29,0.00
2013-3-29,44,32,30,32,20,-100,100,67,47,0.00,40.00,24,10,38,0.00
2013-3-30,42,32,26,30,14,-100,100,64,31,0.00,40.00,23,10,32,0.00
2013-3-31,44,32,25,22,12,-100,80,51,32,0.00,40.00,28,17,40,0.00
2013-4-1,39,29,24,23,14,-100,84,62,48,0.00,40.00,17,10,25,0.00
2013-4-2,47,35,26,21,12,-100,71,45,30,0.00,40.00,14,7,22,0.00
2013-4-3,46,39,35,27,21,-100,70,53,32,0.00,40.00,28,14,41,0.00
2013-4-4,52,39,34,31,19,-100,74,53,31,0.00,40.00,29,13,44,0.00
2013-4-5,43,36,31,32,19,-100,95,61,39,0.00,40.00,39,23,57,0.00
2013-4-6,41,32,30,30,18,-100,100,67,47,0.00,40.00,31,17,41,0.00
2013-4-7,41,30,27,30,20,-100,100,75,41,0.00,40.00,32,13,47,0.03
2013-4-8,28,10,2,25,4,-100,100,89,88,0.00,40.00,17,3,20,0.00
2013-4-9,17,6,0,17,-6,-100,97,83,90,0.00,40.00,0,0,0,0.00
2013-4-10,35,20,8,24,14,-100,98,83,61,0.00,40.00,24,8,35,0.00
2013-4-11,41,30,25,29,18,-100,100,70,31,0.00,40.00,25,12,35,0.00
2013-4-12,30,24,19,26,11,-100,100,71,42,0.00,40.00,17,9,30,0.00
2013-4-13,34,26,17,31,15,-100,100,83,31,0.00,40.00,32,17,47,0.65
2013-4-14,27,15,12,18,1,-100,100,69,52,0.00,40.00,34,20,45,0.00
2013-4-15,12,8,5,11,-2,-100,96,86,93,0.00,40.00,9,3,12,0.00
2013-4-16,8,8,8,7,7,7,94,94,94,0.00,40.00,6,5,7,0.00
2013-4-18,31,26,21,15,11,-100,65,54,47,0.00,40.00,28,22,43,0.00
2013-4-19,37,28,24,27,14,-100,100,65,54,0.00,40.00,35,22,49,0.03
2013-4-20,37,29,27,31,12,-100,100,65,51,0.00,40.00,34,19,56,0.02
2013-4-21,37,23,12,26,7,-100,100,71,47,0.00,40.00,27,13,40,0.00
2013-4-22,13,9,5,11,4,-100,96,91,93,0.00,40.00,15,10,19,0.00
2013-4-23,24,11,3,24,4,-100,99,90,91,0.00,40.00,16,7,26,0.00
2013-4-24,39,24,16,17,8,-100,99,61,33,0.00,40.00,30,18,46,0.00
2013-4-25,44,34,28,14,3,-100,48,33,26,0.00,40.00,36,21,57,0.00
2013-4-26,51,38,29,19,4,-100,52,32,21,0.00,40.00,32,16,44,0.00
2013-4-27,53,42,39,23,8,-100,49,32,23,0.00,40.00,41,27,61,0.00
2013-4-28,46,37,32,36,16,-100,100,53,31,0.00,40.00,26,15,44,0.00
2013-4-29,40,37,36,28,14,-100,64,44,35,0.00,40.00,43,25,63,0.00
2013-5-1,20,18,16,20,10,-100,99,90,93,0.00,40.00,11,6,16,0.00
2013-5-2,44,27,15,18,3,-100,99,54,24,0.00,40.00,29,14,37,0.00
2013-5-3,44,34,30,31,13,-100,100,49,29,0.00,40.00,22,11,30,0.00
2013-5-4,32,29,29,32,23,-100,100,94,100,0.00,40.00,14,10,20,0.01
2013-5-5,41,34,30,34,26,-100,100,82,60,0.00,40.00,17,10,22,0.00
2013-5-6,50,39,33,34,21,-100,84,58,40,0.00,40.00,16,8,22,0.00
2013-5-7,56,45,38,30,21,-100,65,42,27,0.00,40.00,14,7,27,0.00
2013-5-8,51,43,40,33,21,-100,65,47,29,0.00,40.00,16,8,25,0.00
2013-5-9,53,42,36,37,25,-100,75,56,31,0.00,40.00,21,6,32,0.03
2013-5-10,54,40,37,37,20,-100,79,55,29,0.00,40.00,21,8,32,0.00
2013-5-11,58,46,36,32,24,-100,77,49,28,0.00,40.00,16,6,29,0.00
2013-5-12,67,52,44,32,22,-100,54,36,25,0.00,40.00,27,16,42,0.00
2013-5-13,69,57,51,32,23,-100,43,30,19,0.00,40.00,36,18,57,0.00
2013-5-14,66,56,50,33,20,-100,51,27,14,0.00,40.00,42,17,62,0.00
2013-5-15,55,44,39,39,21,-100,93,49,32,0.00,40.00,21,11,26,0.18
2013-5-16,54,39,39,42,16,-100,100,77,43,0.00,40.00,17,7,24,0.45
2013-5-17,45,38,38,44,28,-100,100,91,76,0.00,40.00,18,7,26,0.35
2013-5-18,41,35,35,40,30,-100,100,93,86,0.00,40.00,11,5,17,1.47
2013-5-19,39,34,32,39,30,-100,100,96,100,0.00,40.00,10,6,19,1.50
2013-5-20,47,37,33,38,32,-100,100,86,52,0.00,40.00,16,6,21,0.06
2013-5-21,49,38,32,31,23,-100,97,63,44,0.00,40.00,18,9,26,0.00
2013-5-22,46,38,34,42,26,-100,100,73,57,0.00,40.00,24,11,35,0.49
2013-5-23,49,39,39,46,29,-100,100,87,85,0.00,40.00,24,13,35,0.68
2013-5-24,54,41,32,36,12,-100,85,39,16,0.00,40.00,34,17,46,0.00
2013-5-25,59,46,39,35,14,-100,52,32,20,0.00,40.00,21,8,27,0.00
2013-5-26,55,46,42,42,25,-100,68,48,33,0.00,40.00,21,8,29,0.01
2013-5-27,51,42,33,37,26,-100,100,61,35,0.00,40.00,40,14,56,0.14
2013-5-28,49,38,37,40,19,-100,100,61,42,0.00,40.00,17,7,27,0.32
2013-5-29,39,32,33,39,22,-100,100,88,88,0.00,40.00,27,10,39,1.38
2013-5-30,44,37,36,35,22,-100,93,66,45,0.00,40.00,39,26,56,0.00
2013-5-31,41,36,32,29,22,-100,73,62,57,0.00,40.00,38,26,51,0.00
2013-6-1,49,38,31,38,26,-100,95,69,58,0.00,40.00,19,10,31,0.00
2013-6-2,59,44,40,42,22,-100,100,53,31,0.00,40.00,24,8,31,0.36
2013-6-3,49,37,33,41,18,-100,100,60,43,0.00,40.00,38,20,68,0.00
2013-6-4,37,31,30,33,24,-100,100,92,73,0.00,40.00,17,4,21,0.00
2013-6-5,51,36,29,40,20,-100,100,71,53,0.00,40.00,17,10,23,0.00
2013-6-6,57,48,43,44,28,-100,77,55,36,0.00,40.00,17,7,25,0.06
2013-6-7,65,50,45,40,25,-100,74,47,30,0.00,40.00,38,14,56,0.00
2013-6-8,66,50,44,42,24,-100,78,41,19,0.00,40.00,26,12,42,0.00
2013-6-9,72,56,48,38,22,-100,53,32,20,0.00,40.00,40,15,59,0.00
2013-6-10,65,52,46,45,32,-100,93,53,27,0.00,40.00,26,12,34,0.00
2013-6-11,67,51,43,49,29,-100,100,56,26,0.00,40.00,28,9,49,0.20
2013-6-12,64,49,43,50,35,-100,100,65,34,0.00,40.00,31,11,46,0.24
2013-6-13,64,51,39,47,33,-100,84,57,34,0.00,40.00,41,10,60,0.24
2013-6-14,52,39,35,32,15,-100,79,47,24,0.00,40.00,37,19,54,0.00
2013-6-15,60,44,35,30,18,-100,67,41,24,0.00,40.00,19,10,26,0.00
2013-6-16,58,48,46,40,21,-100,77,42,25,0.00,40.00,20,8,26,0.00
2013-6-17,62,50,45,46,33,-100,72,58,44,0.00,40.00,18,10,27,0.00
2013-6-18,65,53,49,42,26,-100,66,42,26,0.00,40.00,21,8,42,0.00
2013-6-19,74,55,42,40,22,-100,51,33,13,0.00,40.00,46,14,64,0.00
2013-6-20,57,40,34,22,12,-100,56,39,14,0.00,40.00,50,23,65,0.00
2013-6-22,56,42,37,42,27,-100,100,66,38,0.00,40.00,26,14,42,0.12
2013-6-24,63,53,50,41,23,-100,70,36,31,0.00,40.00,24,8,35,0.00
2013-6-25,63,46,45,41,18,-100,73,48,32,0.00,40.00,38,23,54,0.00
2013-6-26,65,51,47,44,21,-100,85,43,31,0.00,40.00,40,23,58,0.00
2013-6-27,79,52,52,47,20,-100,67,41,18,0.00,40.00,22,10,35,0.00
2013-6-28,69,60,55,47,42,-100,65,54,40,0.00,40.00,17,10,24,0.00
2013-6-29,70,58,52,53,41,-100,96,59,41,0.00,40.00,17,9,26,0.27
2013-6-30,70,58,51,50,42,-100,94,61,41,0.00,40.00,17,10,23,0.00
2013-7-1,70,58,55,52,40,-100,74,59,48,0.00,40.00,19,8,26,0.00
2013-7-2,74,60,54,47,34,-100,66,45,27,0.00,40.00,16,7,21,0.00
2013-7-3,81,68,63,42,33,-100,41,29,17,0.00,40.00,19,7,26,0.00
2013-7-4,70,56,52,54,36,-100,98,58,37,0.00,40.00,19,5,26,0.15
2013-7-5,64,48,51,54,28,-100,93,64,48,0.00,40.00,19,11,27,0.08
2013-7-6,61,52,47,54,42,-100,95,71,43,0.00,40.00,30,11,42,0.17
2013-7-7,66,53,46,51,40,-100,82,64,50,0.00,40.00,19,7,24,0.27
2013-7-8,74,57,52,45,24,-100,70,38,20,0.00,40.00,32,13,49,0.00
2013-7-9,62,46,50,50,18,-100,74,50,48,0.00,40.00,15,8,20,0.00
2013-7-10,78,58,54,47,23,-100,66,36,14,0.00,40.00,13,4,21,0.00
2013-7-11,74,65,52,45,34,29,75,35,19,0.00,40.00,25,8,37,0.00
2013-7-12,73,54,50,43,18,-100,72,37,15,0.00,40.00,24,12,39,0.00
2013-7-13,70,54,52,46,16,-100,79,32,23,0.00,40.00,25,10,30,0.00
2013-7-15,69,59,57,43,27,-100,59,36,30,0.00,40.00,12,9,17,0.00
2013-7-16,58,50,45,52,39,-100,100,78,65,0.00,40.00,21,10,26,0.33
2013-7-17,74,54,52,56,39,-100,99,70,41,0.00,40.00,21,7,26,0.41
2013-7-18,58,56,55,49,48,47,78,75,67,0.00,40.00,10,7,15,0.00
2013-7-21,73,57,56,38,16,-100,48,27,14,0.00,40.00,19,8,26,0.00
2013-7-22,79,46,56,36,-9,-100,41,18,9,0.00,40.00,23,9,40,0.00
2013-7-23,71,36,53,41,-24,-100,55,19,22,0.00,40.00,17,10,21,0.00
2013-7-24,72,58,55,44,27,-100,60,39,28,0.00,40.00,18,9,25,0.00
2013-7-25,66,37,46,47,-12,-100,100,32,34,0.00,40.00,22,11,26,0.00
2013-7-26,71,48,53,49,10,-100,66,38,30,0.00,40.00,20,9,26,0.18
2013-7-27,68,48,55,43,9,-100,60,35,25,0.00,40.00,16,7,24,0.07
2013-7-28,62,48,47,48,26,-100,100,58,39,0.00,40.00,18,9,22,0.37
2013-7-29,58,38,46,49,10,-100,100,62,56,0.00,40.00,20,7,26,0.00
2013-7-30,66,40,43,49,12,-100,100,60,40,0.00,40.00,26,11,35,0.30
2013-7-31,65,47,47,50,17,-100,74,48,33,0.00,40.00,17,6,23,0.00
2013-8-1,67,50,48,50,31,-100,100,65,51,0.00,40.00,22,11,29,0.35
2013-8-2,69,39,48,49,-4,-100,100,42,14,0.00,40.00,22,8,39,0.00
2013-8-3,60,38,45,51,4,-100,100,53,58,0.00,40.00,17,11,23,0.00
2013-8-4,64,38,47,52,3,-100,100,55,45,0.00,40.00,19,10,23,0.00
2013-8-5,75,32,50,49,-22,-100,82,32,10,0.00,40.00,22,8,36,0.00
2013-8-6,65,40,49,41,-2,-100,65,35,33,0.00,40.00,19,12,24,0.00
2013-8-7,67,51,49,41,18,-100,67,38,31,0.00,40.00,19,11,27,0.00
2013-8-8,64,51,49,42,24,-100,69,45,38,0.00,40.00,19,7,26,0.00
2013-8-9,60,49,47,51,32,-100,98,67,48,0.00,40.00,17,7,23,0.00
2013-8-10,69,52,48,45,29,-100,92,53,30,0.00,40.00,16,6,22,0.00
2013-8-11,70,52,51,41,21,-100,60,38,24,0.00,40.00,23,6,34,0.00
2013-8-30,-200,0,200,-100,-100,-100,0,0,100,0.00,40.00,26,13,40,0.00
2013-8-31,-200,0,200,-100,-100,-100,0,0,100,0.00,40.00,19,12,24,0.00
2013-9-1,-200,0,200,-100,-100,-100,0,0,100,0.00,40.00,19,14,25,0.00
2013-9-2,60,12,59,29,-74,-100,31,6,29,0.00,40.00,15,6,20,0.00
2013-9-3,-200,0,200,-100,-100,-100,0,0,100,0.00,40.00,18,9,25,0.00
2013-9-4,-200,0,200,-100,-100,-100,0,0,100,0.00,40.00,11,6,14,0.00
2013-9-5,66,20,66,43,-56,-100,43,13,43,0.00,40.00,12,8,19,0.00
2013-10-23,-200,0,200,-100,-100,-100,0,0,100,0.00,40.00,6,6,9,0.00
2013-10-24,-200,0,200,-100,-100,-100,0,0,100,0.00,40.00,2,2,3,0.00
2013-10-26,-200,0,200,-100,-100,-100,0,0,100,0.00,40.00,30,30,38,0.00
2013-11-25,-200,0,200,-100,-100,-100,0,0,100,0.00,40.00,6,6,9,0.00
2013-11-26,-200,0,200,-100,-100,-100,0,0,100,0.00,40.00,16,16,31,0.00
2013-11-27,-200,0,200,-100,-100,-100,0,0,100,0.00,40.00,15,15,21,0.00
2013-11-30,-200,0,200,-100,-100,-100,0,0,100,0.00,40.00,12,12,20,0.00
2013-12-7,-200,0,200,-100,-100,-100,0,0,100,0.00,40.00,7,7,9,0.00
2013-12-8,-200,0,200,-100,-100,-100,0,0,100,0.00,40.00,17,17,24,0.00
2013-12-11,16,16,16,5,5,5,60,60,60,0.00,40.00,24,24,37,0.00
2013-12-13,21,21,21,15,15,15,75,75,75,0.00,40.00,27,27,36,0.00